地図

経路データ

SID SEASON NUMBER BASIN SUBBASIN NAME ISO_TIME NATURE LAT LON WMO_WIND WMO_PRES WMO_AGENCY TRACK_TYPE DIST2LAND LANDFALL IFLAG USA_AGENCY USA_ATCF_ID USA_LAT USA_LON USA_RECORD USA_STATUS USA_WIND USA_PRES USA_SSHS USA_R34_NE USA_R34_SE USA_R34_SW USA_R34_NW USA_R50_NE USA_R50_SE USA_R50_SW USA_R50_NW USA_R64_NE USA_R64_SE USA_R64_SW USA_R64_NW USA_POCI USA_ROCI USA_RMW USA_EYE TOKYO_LAT TOKYO_LON TOKYO_GRADE TOKYO_WIND TOKYO_PRES TOKYO_R50_DIR TOKYO_R50_LONG TOKYO_R50_SHORT TOKYO_R30_DIR TOKYO_R30_LONG TOKYO_R30_SHORT TOKYO_LAND CMA_LAT CMA_LON CMA_CAT CMA_WIND CMA_PRES HKO_LAT HKO_LON HKO_CAT HKO_WIND HKO_PRES NEWDELHI_LAT NEWDELHI_LON NEWDELHI_GRADE NEWDELHI_WIND NEWDELHI_PRES NEWDELHI_CI NEWDELHI_DP NEWDELHI_POCI REUNION_LAT REUNION_LON REUNION_TYPE REUNION_WIND REUNION_PRES REUNION_TNUM REUNION_CI REUNION_RMW REUNION_R34_NE REUNION_R34_SE REUNION_R34_SW REUNION_R34_NW REUNION_R50_NE REUNION_R50_SE REUNION_R50_SW REUNION_R50_NW REUNION_R64_NE REUNION_R64_SE REUNION_R64_SW REUNION_R64_NW BOM_LAT BOM_LON BOM_TYPE BOM_WIND BOM_PRES BOM_TNUM BOM_CI BOM_RMW BOM_R34_NE BOM_R34_SE BOM_R34_SW BOM_R34_NW BOM_R50_NE BOM_R50_SE BOM_R50_SW BOM_R50_NW BOM_R64_NE BOM_R64_SE BOM_R64_SW BOM_R64_NW BOM_ROCI BOM_POCI BOM_EYE BOM_POS_METHOD BOM_PRES_METHOD NADI_LAT NADI_LON NADI_CAT NADI_WIND NADI_PRES WELLINGTON_LAT WELLINGTON_LON WELLINGTON_WIND WELLINGTON_PRES DS824_LAT DS824_LON DS824_STAGE DS824_WIND DS824_PRES TD9636_LAT TD9636_LON TD9636_STAGE TD9636_WIND TD9636_PRES TD9635_LAT TD9635_LON TD9635_WIND TD9635_PRES TD9635_ROCI NEUMANN_LAT NEUMANN_LON NEUMANN_CLASS NEUMANN_WIND NEUMANN_PRES MLC_LAT MLC_LON MLC_CLASS MLC_WIND MLC_PRES USA_GUST BOM_GUST BOM_GUST_PER REUNION_GUST REUNION_GUST_PER USA_SEAHGT USA_SEARAD_NE USA_SEARAD_SE USA_SEARAD_SW USA_SEARAD_NW STORM_SPEED STORM_DIR
1944306N12279 1944 77 NA CS NOT_NAMED 1944-11-01 00:00:00 TS 12.2000 -81.3000 30 hurdat_atl main 240 240 O_____________ hurdat_atl AL141944 12.2000 -81.3000 TD 30 -1 1 231
1944306N12279 1944 77 NA CS NOT_NAMED 1944-11-01 03:00:00 TS 12.1500 -81.3525 main 229 229 P_____________ AL141944 12.1500 -81.3525 TD 32 -1 1 223
1944306N12279 1944 77 NA CS NOT_NAMED 1944-11-01 06:00:00 TS 12.1000 -81.4000 35 hurdat_atl main 230 230 O_____________ hurdat_atl AL141944 12.1000 -81.4000 TS 35 0 1 220
1944306N12279 1944 77 NA CS NOT_NAMED 1944-11-01 09:00:00 TS 12.0500 -81.4425 main 232 222 P_____________ AL141944 12.0500 -81.4425 TS 37 0 1 223
1944306N12279 1944 77 NA CS NOT_NAMED 1944-11-01 12:00:00 TS 12.0000 -81.5000 40 hurdat_atl main 222 211 O_____________ hurdat_atl AL141944 12.0000 -81.5000 TS 40 0 2 235
1944306N12279 1944 77 NA CS NOT_NAMED 1944-11-01 15:00:00 TS 11.9575 -81.5850 main 211 203 P_____________ AL141944 11.9575 -81.5850 TS 42 0 2 243
1944306N12279 1944 77 NA CS NOT_NAMED 1944-11-01 18:00:00 TS 11.9000 -81.7000 45 hurdat_atl main 203 193 O_____________ hurdat_atl AL141944 11.9000 -81.7000 TS 45 0 3 238
1944306N12279 1944 77 NA CS NOT_NAMED 1944-11-01 21:00:00 TS 11.8000 -81.8425 main 196 174 P_____________ AL141944 11.8000 -81.8425 TS 47 0 4 236
1944306N12279 1944 77 NA CS NOT_NAMED 1944-11-02 00:00:00 TS 11.7000 -82.0000 50 hurdat_atl main 174 163 O_____________ hurdat_atl AL141944 11.7000 -82.0000 TS 50 0 3 243
1944306N12279 1944 77 NA CS NOT_NAMED 1944-11-02 03:00:00 TS 11.6425 -82.1575 main 152 141 P_____________ AL141944 11.6425 -82.1575 TS 52 0 3 251
1944306N12279 1944 77 NA CS NOT_NAMED 1944-11-02 06:00:00 TS 11.6000 -82.3000 55 hurdat_atl main 141 130 O_____________ hurdat_atl AL141944 11.6000 -82.3000 TS 55 0 3 250
1944306N12279 1944 77 NA CS NOT_NAMED 1944-11-02 09:00:00 TS 11.5500 -82.4225 main 131 120 P_____________ AL141944 11.5500 -82.4225 TS 57 0 2 243
1944306N12279 1944 77 NA CS NOT_NAMED 1944-11-02 12:00:00 TS 11.5000 -82.5000 60 hurdat_atl main 120 120 O_____________ hurdat_atl AL141944 11.5000 -82.5000 TS 60 0 1 223
1944306N12279 1944 77 NA CS NOT_NAMED 1944-11-02 15:00:00 TS 11.4500 -82.5225 main 120 122 P_____________ AL141944 11.4500 -82.5225 TS 60 0 1 0
1944306N12279 1944 77 NA CS NOT_NAMED 1944-11-02 18:00:00 TS 11.4000 -82.5000 60 hurdat_atl main 122 122 O_____________ hurdat_atl AL141944 11.4000 -82.5000 TS 60 0 1 155
1944306N12279 1944 77 NA CS NOT_NAMED 1944-11-02 21:00:00 TS 11.3425 -82.4650 main 124 124 P_____________ AL141944 11.3425 -82.4650 TS 55 0 1 137
1944306N12279 1944 77 NA CS NOT_NAMED 1944-11-03 00:00:00 TS 11.3000 -82.4000 50 hurdat_atl main 135 135 O_____________ hurdat_atl AL141944 11.3000 -82.4000 TS 50 0 2 108
1944306N12279 1944 77 NA CS NOT_NAMED 1944-11-03 03:00:00 TS 11.2925 -82.3075 main 145 145 P_____________ AL141944 11.2925 -82.3075 TS 45 0 2 90
1944306N12279 1944 77 NA CS NOT_NAMED 1944-11-03 06:00:00 TS 11.3000 -82.2000 40 hurdat_atl main 156 156 O_____________ hurdat_atl AL141944 11.3000 -82.2000 TS 40 0 2 88
1944306N12279 1944 77 NA CS NOT_NAMED 1944-11-03 09:00:00 TS 11.3000 -82.1000 main 167 167 P_____________ AL141944 11.3000 -82.1000 TS 35 0 2 90
1944306N12279 1944 77 NA CS NOT_NAMED 1944-11-03 12:00:00 TS 11.3000 -82.0000 30 hurdat_atl main 177 177 O_____________ hurdat_atl AL141944 11.3000 -82.0000 TD 30 -1 2 90
1944306N12279 1944 77 NA CS NOT_NAMED 1944-11-03 15:00:00 TS 11.3000 -81.9000 main 188 188 P_____________ AL141944 11.3000 -81.9000 TD 27 -1 2 90
1944306N12279 1944 77 NA CS NOT_NAMED 1944-11-03 18:00:00 TS 11.3000 -81.8000 25 hurdat_atl main 196 O_____________ hurdat_atl AL141944 11.3000 -81.8000 TD 25 -1 2 90

IBTrACS Databaseについて

本データベースは、米国NOAAが公開する1842年以降の世界の熱帯低気圧のベストトラックデータアーカイブInternational Best Track Archive for Climate Stewardship (IBTrACS)を、ウェブで閲覧しやすい形式に変換したものです。

最終更新日:2021-12-03